< < Back
Terminal Aerodrome Forecast


Current Version              Previous Versions:   1  2  3  4  5  6  7  8  9  

Terminal Aerodrome Forecast

496
FTUS42 KJAX 251732
TAFGNV
TAF
KGNV 251732Z 2518/2618 05007KT P6SM VCTS BKN035CB
     FM260000 07005KT P6SM VCSH SCT050 BKN250
     FM260300 VRB03KT P6SM BKN250
     FM261000 00000KT 4SM BR FEW003
     FM261300 VRB04KT P6SM SCT030 SCT250=

Latest METAR

269
SAUS70 KWBC 260656
MTRGNV
METAR KGNV 260653Z AUTO 25003KT 10SM CLR 22/21 A2999 RMK AO2 SLP154
T02220206


USA.gov is the U.S. government's official web portal to all federal, state and local government web resources and services.